Capt. Pete — WDH7978 — position and weather

sailwx.info

Track history (hours):
 
Tides and Currents Weather Stations Pressure Air Temp Water Temp Dewpoint Dewpoint Depression Visibility Wind Speed Wind Dir Waves Ship Positions

Capt. Pete

Owner: Higman Barge Lines, Inc., Orange, TX. More information available from US FCC via Universal Licensing System and Coast Guard Vessel Documentation Center.

Last reported at 2018-Feb-23 17:24 UTC. Time now 2018-Feb-24 10:25 UTC.
Position N 29°36' W 090°58'.

Length 24 m; draft 2.7 m.

Type: Towing. MMSI: 367653470.

Date/timePositionNaut miles runAvg speedWind from/ knotsBaromVisibWave heightAir tempDewpointWater temp
2018-Feb-23 17:24N 29°36' W 090°58'3 6.5
2018-Feb-23 16:58N 29°34' W 090°56'4 6.9
2018-Feb-23 16:21N 29°32' W 090°52'2 7.1
2018-Feb-23 16:00N 29°32' W 090°49'3 6.1
2018-Feb-23 15:30N 29°33' W 090°45'3 5.3
2018-Feb-23 15:00N 29°34' W 090°43'3 5.0
2018-Feb-23 14:30N 29°37' W 090°42'1 1.6
2018-Feb-23 14:00N 29°37' W 090°41'0 0.0
2018-Feb-23 13:30N 29°37' W 090°41'0 0.1
2018-Feb-23 13:00N 29°37' W 090°41'2 4.1
2018-Feb-23 12:30N 29°36' W 090°39'3 6.3
2018-Feb-23 12:00N 29°35' W 090°36'1 2.5
2018-Feb-23 11:30N 29°34' W 090°34'1 2.6
2018-Feb-23 11:00N 29°34' W 090°33'  
2018-Feb-17 16:47N 29°34' W 090°56'2 6.2
2018-Feb-17 16:29N 29°33' W 090°54'3 6.1
2018-Feb-17 16:00N 29°32' W 090°51'3 6.2
2018-Feb-17 15:30N 29°32' W 090°47'3 5.2
2018-Feb-17 15:00N 29°34' W 090°45'1 2.5
2018-Feb-17 14:30N 29°34' W 090°44'0 0.0
2018-Feb-17 14:00N 29°34' W 090°44'0 0.0
2018-Feb-17 13:30N 29°34' W 090°44'0 0.0
2018-Feb-17 13:00N 29°34' W 090°44'0 0.0
2018-Feb-17 12:30N 29°34' W 090°44'0 0.0
2018-Feb-17 12:00N 29°34' W 090°44'0 0.0
2018-Feb-17 11:30N 29°34' W 090°44'0 0.2
2018-Feb-17 11:00N 29°34' W 090°43'2 3.6
2018-Feb-17 10:30N 29°36' W 090°43'1 2.9
2018-Feb-17 10:00N 29°37' W 090°41'2 4.4
2018-Feb-17 09:30N 29°36' W 090°39'3 5.4
2018-Feb-17 09:00N 29°35' W 090°36'3 5.9
2018-Feb-17 08:30N 29°34' W 090°33'3 6.2
2018-Feb-17 08:00N 29°34' W 090°29'  
Track history (hours):
 
Tides and Currents Weather Stations Pressure Air Temp Water Temp Dewpoint Dewpoint Depression Visibility Wind Speed Wind Dir Waves Ship Positions

Capt. Pete

Owner: Higman Barge Lines, Inc., Orange, TX. More information available from US FCC via Universal Licensing System and Coast Guard Vessel Documentation Center.

Last reported at 2018-Feb-23 17:24 UTC. Time now 2018-Feb-24 10:25 UTC.
Position N 29°36' W 090°58'.

Length 24 m; draft 2.7 m.

Type: Towing. MMSI: 367653470.

Date/timePositionNaut miles runAvg speedWind from/ knotsBaromVisibWave heightAir tempDewpointWater temp
2018-Feb-23 17:24N 29°36' W 090°58'3 6.5
2018-Feb-23 16:58N 29°34' W 090°56'4 6.9
2018-Feb-23 16:21N 29°32' W 090°52'2 7.1
2018-Feb-23 16:00N 29°32' W 090°49'3 6.1
2018-Feb-23 15:30N 29°33' W 090°45'3 5.3
2018-Feb-23 15:00N 29°34' W 090°43'3 5.0
2018-Feb-23 14:30N 29°37' W 090°42'1 1.6
2018-Feb-23 14:00N 29°37' W 090°41'0 0.0
2018-Feb-23 13:30N 29°37' W 090°41'0 0.1
2018-Feb-23 13:00N 29°37' W 090°41'2 4.1
2018-Feb-23 12:30N 29°36' W 090°39'3 6.3
2018-Feb-23 12:00N 29°35' W 090°36'1 2.5
2018-Feb-23 11:30N 29°34' W 090°34'1 2.6
2018-Feb-23 11:00N 29°34' W 090°33'  
2018-Feb-17 16:47N 29°34' W 090°56'2 6.2
2018-Feb-17 16:29N 29°33' W 090°54'3 6.1
2018-Feb-17 16:00N 29°32' W 090°51'3 6.2
2018-Feb-17 15:30N 29°32' W 090°47'3 5.2
2018-Feb-17 15:00N 29°34' W 090°45'1 2.5
2018-Feb-17 14:30N 29°34' W 090°44'0 0.0
2018-Feb-17 14:00N 29°34' W 090°44'0 0.0
2018-Feb-17 13:30N 29°34' W 090°44'0 0.0
2018-Feb-17 13:00N 29°34' W 090°44'0 0.0
2018-Feb-17 12:30N 29°34' W 090°44'0 0.0
2018-Feb-17 12:00N 29°34' W 090°44'0 0.0
2018-Feb-17 11:30N 29°34' W 090°44'0 0.2
2018-Feb-17 11:00N 29°34' W 090°43'2 3.6
2018-Feb-17 10:30N 29°36' W 090°43'1 2.9
2018-Feb-17 10:00N 29°37' W 090°41'2 4.4
2018-Feb-17 09:30N 29°36' W 090°39'3 5.4
2018-Feb-17 09:00N 29°35' W 090°36'3 5.9
2018-Feb-17 08:30N 29°34' W 090°33'3 6.2
2018-Feb-17 08:00N 29°34' W 090°29'  

Dump ship's entire track history